sensor_id;sensor_type;location;lat;lon;timestamp;temperature;humidity
67093;SHT31;54011;50.772;7.730;2023-07-02T00:01:00;17.67;81.50
67093;SHT31;54011;50.772;7.730;2023-07-02T00:03:26;17.66;81.53
67093;SHT31;54011;50.772;7.730;2023-07-02T00:05:51;17.73;81.86
67093;SHT31;54011;50.772;7.730;2023-07-02T00:08:21;17.67;81.76
67093;SHT31;54011;50.772;7.730;2023-07-02T00:10:46;17.84;81.19
67093;SHT31;54011;50.772;7.730;2023-07-02T00:13:13;17.75;81.45
67093;SHT31;54011;50.772;7.730;2023-07-02T00:15:38;17.69;81.86
67093;SHT31;54011;50.772;7.730;2023-07-02T00:18:04;17.85;81.07
67093;SHT31;54011;50.772;7.730;2023-07-02T00:20:29;17.84;81.65
67093;SHT31;54011;50.772;7.730;2023-07-02T00:22:55;17.78;81.07
67093;SHT31;54011;50.772;7.730;2023-07-02T00:25:21;17.71;81.00
67093;SHT31;54011;50.772;7.730;2023-07-02T00:27:48;17.63;81.39
67093;SHT31;54011;50.772;7.730;2023-07-02T00:30:14;17.94;80.74
67093;SHT31;54011;50.772;7.730;2023-07-02T00:32:40;17.83;80.76
67093;SHT31;54011;50.772;7.730;2023-07-02T00:35:06;17.95;81.04
67093;SHT31;54011;50.772;7.730;2023-07-02T00:37:31;17.87;80.60
67093;SHT31;54011;50.772;7.730;2023-07-02T00:39:57;17.94;80.67
67093;SHT31;54011;50.772;7.730;2023-07-02T00:42:23;18.15;80.35
67093;SHT31;54011;50.772;7.730;2023-07-02T00:44:49;18.12;80.37
67093;SHT31;54011;50.772;7.730;2023-07-02T00:47:19;17.87;81.31
67093;SHT31;54011;50.772;7.730;2023-07-02T00:49:44;18.00;80.88
67093;SHT31;54011;50.772;7.730;2023-07-02T00:52:10;17.83;81.39
67093;SHT31;54011;50.772;7.730;2023-07-02T00:54:36;18.01;80.85
67093;SHT31;54011;50.772;7.730;2023-07-02T00:57:02;18.09;80.36
67093;SHT31;54011;50.772;7.730;2023-07-02T00:59:33;18.04;80.64
67093;SHT31;54011;50.772;7.730;2023-07-02T01:02:03;17.91;80.93
67093;SHT31;54011;50.772;7.730;2023-07-02T01:04:30;17.95;80.56
67093;SHT31;54011;50.772;7.730;2023-07-02T01:06:57;18.12;80.12
67093;SHT31;54011;50.772;7.730;2023-07-02T01:09:27;17.98;79.99
67093;SHT31;54011;50.772;7.730;2023-07-02T01:11:57;18.00;80.40
67093;SHT31;54011;50.772;7.730;2023-07-02T01:14:36;18.19;79.99
67093;SHT31;54011;50.772;7.730;2023-07-02T01:17:03;18.25;79.47
67093;SHT31;54011;50.772;7.730;2023-07-02T01:21:59;18.25;79.96
67093;SHT31;54011;50.772;7.730;2023-07-02T01:24:26;18.34;79.41
67093;SHT31;54011;50.772;7.730;2023-07-02T01:26:53;18.15;79.33
67093;SHT31;54011;50.772;7.730;2023-07-02T01:29:20;18.22;79.37
67093;SHT31;54011;50.772;7.730;2023-07-02T01:31:48;18.24;79.28
67093;SHT31;54011;50.772;7.730;2023-07-02T01:34:15;18.34;79.23
67093;SHT31;54011;50.772;7.730;2023-07-02T01:36:40;18.06;79.65
67093;SHT31;54011;50.772;7.730;2023-07-02T01:39:06;18.05;79.29
67093;SHT31;54011;50.772;7.730;2023-07-02T01:41:44;17.98;78.98
67093;SHT31;54011;50.772;7.730;2023-07-02T01:44:10;17.80;79.10
67093;SHT31;54011;50.772;7.730;2023-07-02T01:46:36;17.88;79.11
67093;SHT31;54011;50.772;7.730;2023-07-02T01:49:02;17.85;78.88
67093;SHT31;54011;50.772;7.730;2023-07-02T01:51:28;17.80;79.30
67093;SHT31;54011;50.772;7.730;2023-07-02T01:53:54;18.08;78.46
67093;SHT31;54011;50.772;7.730;2023-07-02T01:56:20;18.00;78.49
67093;SHT31;54011;50.772;7.730;2023-07-02T01:58:45;17.95;78.87
67093;SHT31;54011;50.772;7.730;2023-07-02T02:01:11;18.05;78.35
67093;SHT31;54011;50.772;7.730;2023-07-02T02:03:38;18.04;78.54
67093;SHT31;54011;50.772;7.730;2023-07-02T02:06:03;17.87;78.46
67093;SHT31;54011;50.772;7.730;2023-07-02T02:08:28;18.01;78.66
67093;SHT31;54011;50.772;7.730;2023-07-02T02:10:54;17.91;79.07
67093;SHT31;54011;50.772;7.730;2023-07-02T02:13:19;17.80;79.03
67093;SHT31;54011;50.772;7.730;2023-07-02T02:15:46;17.64;79.40
67093;SHT31;54011;50.772;7.730;2023-07-02T02:18:11;17.90;78.66
67093;SHT31;54011;50.772;7.730;2023-07-02T02:20:38;18.04;78.38
67093;SHT31;54011;50.772;7.730;2023-07-02T02:23:04;18.04;78.47
67093;SHT31;54011;50.772;7.730;2023-07-02T02:25:30;17.91;79.13
67093;SHT31;54011;50.772;7.730;2023-07-02T02:27:55;17.94;78.58
67093;SHT31;54011;50.772;7.730;2023-07-02T02:30:21;17.88;78.99
67093;SHT31;54011;50.772;7.730;2023-07-02T02:32:48;18.00;78.84
67093;SHT31;54011;50.772;7.730;2023-07-02T02:35:15;18.35;78.09
67093;SHT31;54011;50.772;7.730;2023-07-02T02:37:41;18.12;78.34
67093;SHT31;54011;50.772;7.730;2023-07-02T02:40:08;18.04;78.29
67093;SHT31;54011;50.772;7.730;2023-07-02T02:42:38;18.24;78.11
67093;SHT31;54011;50.772;7.730;2023-07-02T02:45:04;18.04;78.50
67093;SHT31;54011;50.772;7.730;2023-07-02T02:47:30;18.04;78.24
67093;SHT31;54011;50.772;7.730;2023-07-02T02:49:55;18.09;78.15
67093;SHT31;54011;50.772;7.730;2023-07-02T02:52:21;18.04;78.18
67093;SHT31;54011;50.772;7.730;2023-07-02T02:54:46;18.08;77.95
67093;SHT31;54011;50.772;7.730;2023-07-02T02:57:12;17.87;78.56
67093;SHT31;54011;50.772;7.730;2023-07-02T02:59:38;18.28;77.74
67093;SHT31;54011;50.772;7.730;2023-07-02T03:02:04;18.18;78.36
67093;SHT31;54011;50.772;7.730;2023-07-02T03:04:30;18.16;78.17
67093;SHT31;54011;50.772;7.730;2023-07-02T03:06:55;18.12;78.52
67093;SHT31;54011;50.772;7.730;2023-07-02T03:09:22;18.06;78.28
67093;SHT31;54011;50.772;7.730;2023-07-02T03:11:47;18.01;77.60
67093;SHT31;54011;50.772;7.730;2023-07-02T03:14:14;18.08;78.10
67093;SHT31;54011;50.772;7.730;2023-07-02T03:16:43;18.14;77.66
67093;SHT31;54011;50.772;7.730;2023-07-02T03:19:10;18.34;77.39
67093;SHT31;54011;50.772;7.730;2023-07-02T03:21:36;18.25;77.65
67093;SHT31;54011;50.772;7.730;2023-07-02T03:24:02;18.28;77.57
67093;SHT31;54011;50.772;7.730;2023-07-02T03:26:27;18.16;77.26
67093;SHT31;54011;50.772;7.730;2023-07-02T03:28:53;18.28;77.19
67093;SHT31;54011;50.772;7.730;2023-07-02T03:31:18;18.29;77.24
67093;SHT31;54011;50.772;7.730;2023-07-02T03:33:43;18.05;77.82
67093;SHT31;54011;50.772;7.730;2023-07-02T03:36:10;17.60;78.15
67093;SHT31;54011;50.772;7.730;2023-07-02T03:38:35;17.80;76.78
67093;SHT31;54011;50.772;7.730;2023-07-02T03:41:02;17.90;77.25
67093;SHT31;54011;50.772;7.730;2023-07-02T03:43:27;17.90;77.39
67093;SHT31;54011;50.772;7.730;2023-07-02T03:45:53;17.98;77.37
67093;SHT31;54011;50.772;7.730;2023-07-02T03:48:19;18.21;76.94
67093;SHT31;54011;50.772;7.730;2023-07-02T03:50:46;17.98;77.28
67093;SHT31;54011;50.772;7.730;2023-07-02T03:53:12;18.22;77.34
67093;SHT31;54011;50.772;7.730;2023-07-02T03:55:37;18.26;77.27
67093;SHT31;54011;50.772;7.730;2023-07-02T03:58:04;18.08;77.04
67093;SHT31;54011;50.772;7.730;2023-07-02T04:00:29;18.15;76.86
67093;SHT31;54011;50.772;7.730;2023-07-02T04:02:56;18.19;76.62
67093;SHT31;54011;50.772;7.730;2023-07-02T04:05:21;18.09;76.23
67093;SHT31;54011;50.772;7.730;2023-07-02T04:07:47;18.01;76.08
67093;SHT31;54011;50.772;7.730;2023-07-02T04:10:12;18.22;75.53
67093;SHT31;54011;50.772;7.730;2023-07-02T04:12:38;17.98;75.93
67093;SHT31;54011;50.772;7.730;2023-07-02T04:15:05;17.83;77.37
67093;SHT31;54011;50.772;7.730;2023-07-02T04:17:30;18.16;77.35
67093;SHT31;54011;50.772;7.730;2023-07-02T04:19:57;18.15;76.98
67093;SHT31;54011;50.772;7.730;2023-07-02T04:22:23;17.81;76.81
67093;SHT31;54011;50.772;7.730;2023-07-02T04:24:48;18.01;75.95
67093;SHT31;54011;50.772;7.730;2023-07-02T04:27:15;18.41;75.31
67093;SHT31;54011;50.772;7.730;2023-07-02T04:29:44;18.19;75.45
67093;SHT31;54011;50.772;7.730;2023-07-02T04:32:10;17.98;75.50
67093;SHT31;54011;50.772;7.730;2023-07-02T04:34:36;17.85;75.34
67093;SHT31;54011;50.772;7.730;2023-07-02T04:37:03;18.09;75.09
67093;SHT31;54011;50.772;7.730;2023-07-02T04:39:29;18.01;74.89
67093;SHT31;54011;50.772;7.730;2023-07-02T04:41:54;17.84;75.38
67093;SHT31;54011;50.772;7.730;2023-07-02T04:44:20;18.15;74.91
67093;SHT31;54011;50.772;7.730;2023-07-02T04:46:57;18.24;74.86
67093;SHT31;54011;50.772;7.730;2023-07-02T04:49:22;18.14;74.71
67093;SHT31;54011;50.772;7.730;2023-07-02T04:51:47;17.88;74.47
67093;SHT31;54011;50.772;7.730;2023-07-02T04:54:13;18.22;74.42
67093;SHT31;54011;50.772;7.730;2023-07-02T04:56:41;18.00;74.05
67093;SHT31;54011;50.772;7.730;2023-07-02T04:59:06;18.25;73.99
67093;SHT31;54011;50.772;7.730;2023-07-02T05:01:32;18.01;74.47
67093;SHT31;54011;50.772;7.730;2023-07-02T05:03:58;18.06;74.19
67093;SHT31;54011;50.772;7.730;2023-07-02T05:06:23;18.14;74.24
67093;SHT31;54011;50.772;7.730;2023-07-02T05:08:49;18.19;74.07
67093;SHT31;54011;50.772;7.730;2023-07-02T05:11:14;18.15;74.09
67093;SHT31;54011;50.772;7.730;2023-07-02T05:13:40;18.21;74.24
67093;SHT31;54011;50.772;7.730;2023-07-02T05:16:05;18.69;73.68
67093;SHT31;54011;50.772;7.730;2023-07-02T05:18:31;18.22;73.71
67093;SHT31;54011;50.772;7.730;2023-07-02T05:20:56;18.48;73.71
67093;SHT31;54011;50.772;7.730;2023-07-02T05:23:22;18.87;72.96
67093;SHT31;54011;50.772;7.730;2023-07-02T05:25:48;18.67;73.13
67093;SHT31;54011;50.772;7.730;2023-07-02T05:28:14;18.72;72.98
67093;SHT31;54011;50.772;7.730;2023-07-02T05:30:41;18.41;73.93
67093;SHT31;54011;50.772;7.730;2023-07-02T05:33:07;18.67;73.52
67093;SHT31;54011;50.772;7.730;2023-07-02T05:35:32;18.59;73.93
67093;SHT31;54011;50.772;7.730;2023-07-02T05:37:58;18.48;73.93
67093;SHT31;54011;50.772;7.730;2023-07-02T05:40:24;18.32;74.06
67093;SHT31;54011;50.772;7.730;2023-07-02T05:42:50;18.79;73.51
67093;SHT31;54011;50.772;7.730;2023-07-02T05:45:17;18.32;73.53
67093;SHT31;54011;50.772;7.730;2023-07-02T05:47:42;18.63;73.15
67093;SHT31;54011;50.772;7.730;2023-07-02T05:50:08;18.79;73.17
67093;SHT31;54011;50.772;7.730;2023-07-02T05:52:34;18.62;73.56
67093;SHT31;54011;50.772;7.730;2023-07-02T05:55:00;18.74;72.79
67093;SHT31;54011;50.772;7.730;2023-07-02T05:57:25;18.79;72.70
67093;SHT31;54011;50.772;7.730;2023-07-02T05:59:51;18.77;72.74
67093;SHT31;54011;50.772;7.730;2023-07-02T06:02:16;18.82;72.79
67093;SHT31;54011;50.772;7.730;2023-07-02T06:04:43;18.76;72.67
67093;SHT31;54011;50.772;7.730;2023-07-02T06:07:08;18.74;72.94
67093;SHT31;54011;50.772;7.730;2023-07-02T06:09:35;18.66;73.03
67093;SHT31;54011;50.772;7.730;2023-07-02T06:12:01;18.69;72.90
67093;SHT31;54011;50.772;7.730;2023-07-02T06:14:26;18.89;72.92
67093;SHT31;54011;50.772;7.730;2023-07-02T06:16:52;19.20;72.24
67093;SHT31;54011;50.772;7.730;2023-07-02T06:19:19;18.97;72.96
67093;SHT31;54011;50.772;7.730;2023-07-02T06:21:44;19.36;72.68
67093;SHT31;54011;50.772;7.730;2023-07-02T06:24:10;19.47;72.58
67093;SHT31;54011;50.772;7.730;2023-07-02T06:26:35;19.78;71.41
67093;SHT31;54011;50.772;7.730;2023-07-02T06:29:01;18.77;72.49
67093;SHT31;54011;50.772;7.730;2023-07-02T06:31:26;19.68;71.64
67093;SHT31;54011;50.772;7.730;2023-07-02T06:33:53;19.45;71.49
67093;SHT31;54011;50.772;7.730;2023-07-02T06:36:19;19.18;71.97
67093;SHT31;54011;50.772;7.730;2023-07-02T06:38:46;19.36;72.17
67093;SHT31;54011;50.772;7.730;2023-07-02T06:41:13;19.39;71.39
67093;SHT31;54011;50.772;7.730;2023-07-02T06:43:41;19.24;71.59
67093;SHT31;54011;50.772;7.730;2023-07-02T06:46:10;19.58;71.33
67093;SHT31;54011;50.772;7.730;2023-07-02T06:48:36;19.44;70.84
67093;SHT31;54011;50.772;7.730;2023-07-02T06:51:02;19.43;71.20
67093;SHT31;54011;50.772;7.730;2023-07-02T06:53:28;19.64;72.09
67093;SHT31;54011;50.772;7.730;2023-07-02T06:55:55;19.89;71.19
67093;SHT31;54011;50.772;7.730;2023-07-02T06:58:20;19.36;72.48
67093;SHT31;54011;50.772;7.730;2023-07-02T07:00:46;19.65;71.46
67093;SHT31;54011;50.772;7.730;2023-07-02T07:03:11;19.92;70.78
67093;SHT31;54011;50.772;7.730;2023-07-02T07:05:38;19.68;71.11
67093;SHT31;54011;50.772;7.730;2023-07-02T07:08:04;19.90;70.57
67093;SHT31;54011;50.772;7.730;2023-07-02T07:10:31;19.41;71.70
67093;SHT31;54011;50.772;7.730;2023-07-02T07:13:01;19.75;71.51
67093;SHT31;54011;50.772;7.730;2023-07-02T07:15:30;20.13;70.28
67093;SHT31;54011;50.772;7.730;2023-07-02T07:17:56;20.05;69.77
67093;SHT31;54011;50.772;7.730;2023-07-02T07:20:23;21.05;68.24
67093;SHT31;54011;50.772;7.730;2023-07-02T07:22:49;21.22;67.73
67093;SHT31;54011;50.772;7.730;2023-07-02T07:25:14;20.57;69.09
67093;SHT31;54011;50.772;7.730;2023-07-02T07:27:40;20.44;68.89
67093;SHT31;54011;50.772;7.730;2023-07-02T07:30:06;20.34;69.08
67093;SHT31;54011;50.772;7.730;2023-07-02T07:32:32;20.45;68.18
67093;SHT31;54011;50.772;7.730;2023-07-02T07:34:58;20.61;67.61
67093;SHT31;54011;50.772;7.730;2023-07-02T07:37:24;20.16;68.34
67093;SHT31;54011;50.772;7.730;2023-07-02T07:39:53;20.98;66.33
67093;SHT31;54011;50.772;7.730;2023-07-02T07:42:18;20.45;66.77
67093;SHT31;54011;50.772;7.730;2023-07-02T07:44:47;21.15;66.15
67093;SHT31;54011;50.772;7.730;2023-07-02T07:47:13;20.82;65.98
67093;SHT31;54011;50.772;7.730;2023-07-02T07:49:38;21.23;65.88
67093;SHT31;54011;50.772;7.730;2023-07-02T07:52:04;21.26;66.79
67093;SHT31;54011;50.772;7.730;2023-07-02T07:54:33;21.70;66.44
67093;SHT31;54011;50.772;7.730;2023-07-02T07:57:03;21.22;64.82
67093;SHT31;54011;50.772;7.730;2023-07-02T07:59:29;21.86;65.43
67093;SHT31;54011;50.772;7.730;2023-07-02T08:01:55;21.29;65.26
67093;SHT31;54011;50.772;7.730;2023-07-02T08:04:21;21.09;65.87
67093;SHT31;54011;50.772;7.730;2023-07-02T08:06:47;21.89;62.68
67093;SHT31;54011;50.772;7.730;2023-07-02T08:09:14;21.60;64.25
67093;SHT31;54011;50.772;7.730;2023-07-02T08:11:40;21.82;61.80
67093;SHT31;54011;50.772;7.730;2023-07-02T08:14:06;21.49;60.78
67093;SHT31;54011;50.772;7.730;2023-07-02T08:16:32;21.35;60.40
67093;SHT31;54011;50.772;7.730;2023-07-02T08:18:59;21.63;60.37
67093;SHT31;54011;50.772;7.730;2023-07-02T08:21:25;21.64;59.18
67093;SHT31;54011;50.772;7.730;2023-07-02T08:23:51;21.74;59.64
67093;SHT31;54011;50.772;7.730;2023-07-02T08:26:17;21.38;61.32
67093;SHT31;54011;50.772;7.730;2023-07-02T08:28:43;21.77;60.71
67093;SHT31;54011;50.772;7.730;2023-07-02T08:31:09;21.42;58.16
67093;SHT31;54011;50.772;7.730;2023-07-02T08:33:35;21.38;59.77
67093;SHT31;54011;50.772;7.730;2023-07-02T08:36:01;21.46;59.15
67093;SHT31;54011;50.772;7.730;2023-07-02T08:38:27;22.00;58.66
67093;SHT31;54011;50.772;7.730;2023-07-02T08:40:53;22.48;58.84
67093;SHT31;54011;50.772;7.730;2023-07-02T08:43:19;22.14;59.19
67093;SHT31;54011;50.772;7.730;2023-07-02T08:45:45;21.73;58.87
67093;SHT31;54011;50.772;7.730;2023-07-02T08:48:12;22.47;59.03
67093;SHT31;54011;50.772;7.730;2023-07-02T08:50:37;22.59;57.87
67093;SHT31;54011;50.772;7.730;2023-07-02T08:53:05;22.11;59.11
67093;SHT31;54011;50.772;7.730;2023-07-02T08:55:31;22.61;58.97
67093;SHT31;54011;50.772;7.730;2023-07-02T08:57:57;22.62;58.11
67093;SHT31;54011;50.772;7.730;2023-07-02T09:00:25;22.95;57.82
67093;SHT31;54011;50.772;7.730;2023-07-02T09:02:51;23.02;57.55
67093;SHT31;54011;50.772;7.730;2023-07-02T09:05:17;23.07;56.20
67093;SHT31;54011;50.772;7.730;2023-07-02T09:07:44;23.46;54.91
67093;SHT31;54011;50.772;7.730;2023-07-02T09:10:11;22.58;54.87
67093;SHT31;54011;50.772;7.730;2023-07-02T09:12:37;23.43;54.80
67093;SHT31;54011;50.772;7.730;2023-07-02T09:15:05;23.60;53.12
67093;SHT31;54011;50.772;7.730;2023-07-02T09:17:34;23.88;54.58
67093;SHT31;54011;50.772;7.730;2023-07-02T09:20:01;23.75;52.84
67093;SHT31;54011;50.772;7.730;2023-07-02T09:22:28;23.24;52.54
67093;SHT31;54011;50.772;7.730;2023-07-02T09:24:56;23.16;52.37
67093;SHT31;54011;50.772;7.730;2023-07-02T09:27:40;23.71;51.43
67093;SHT31;54011;50.772;7.730;2023-07-02T09:30:14;23.27;51.21
67093;SHT31;54011;50.772;7.730;2023-07-02T09:32:42;23.30;51.08
67093;SHT31;54011;50.772;7.730;2023-07-02T09:35:09;23.40;52.49
67093;SHT31;54011;50.772;7.730;2023-07-02T09:37:35;24.09;51.64
67093;SHT31;54011;50.772;7.730;2023-07-02T09:40:02;24.01;51.02
67093;SHT31;54011;50.772;7.730;2023-07-02T09:42:35;24.15;52.10
67093;SHT31;54011;50.772;7.730;2023-07-02T09:45:07;23.37;52.38
67093;SHT31;54011;50.772;7.730;2023-07-02T09:47:43;23.60;53.07
67093;SHT31;54011;50.772;7.730;2023-07-02T09:50:14;23.72;52.22
67093;SHT31;54011;50.772;7.730;2023-07-02T09:52:44;24.53;51.73
67093;SHT31;54011;50.772;7.730;2023-07-02T09:55:11;23.72;51.62
67093;SHT31;54011;50.772;7.730;2023-07-02T09:57:37;23.33;52.39
67093;SHT31;54011;50.772;7.730;2023-07-02T10:00:04;23.71;52.06
67093;SHT31;54011;50.772;7.730;2023-07-02T10:02:31;24.39;50.41
67093;SHT31;54011;50.772;7.730;2023-07-02T10:04:58;24.84;50.56
67093;SHT31;54011;50.772;7.730;2023-07-02T10:07:28;24.39;51.36
67093;SHT31;54011;50.772;7.730;2023-07-02T10:09:55;24.53;50.70
67093;SHT31;54011;50.772;7.730;2023-07-02T10:12:25;24.63;49.97
67093;SHT31;54011;50.772;7.730;2023-07-02T10:14:54;24.59;52.00
67093;SHT31;54011;50.772;7.730;2023-07-02T10:17:27;24.29;53.22
67093;SHT31;54011;50.772;7.730;2023-07-02T10:19:58;24.06;51.87
67093;SHT31;54011;50.772;7.730;2023-07-02T10:22:25;23.43;52.88
67093;SHT31;54011;50.772;7.730;2023-07-02T10:24:56;23.77;52.95
67093;SHT31;54011;50.772;7.730;2023-07-02T10:27:42;23.47;54.01
67093;SHT31;54011;50.772;7.730;2023-07-02T10:30:09;23.91;52.79
67093;SHT31;54011;50.772;7.730;2023-07-02T10:32:37;23.88;53.05
67093;SHT31;54011;50.772;7.730;2023-07-02T10:35:19;23.17;53.30
67093;SHT31;54011;50.772;7.730;2023-07-02T10:37:45;23.07;54.19
67093;SHT31;54011;50.772;7.730;2023-07-02T10:40:12;22.88;54.99
67093;SHT31;54011;50.772;7.730;2023-07-02T10:42:46;23.82;53.70
67093;SHT31;54011;50.772;7.730;2023-07-02T10:45:13;24.25;52.43
67093;SHT31;54011;50.772;7.730;2023-07-02T10:47:39;24.19;51.52
67093;SHT31;54011;50.772;7.730;2023-07-02T10:52:41;23.72;50.88
67093;SHT31;54011;50.772;7.730;2023-07-02T10:55:07;23.72;52.29
67093;SHT31;54011;50.772;7.730;2023-07-02T10:57:33;24.49;51.35
67093;SHT31;54011;50.772;7.730;2023-07-02T11:00:04;24.22;51.98
67093;SHT31;54011;50.772;7.730;2023-07-02T11:02:39;23.50;51.42
67093;SHT31;54011;50.772;7.730;2023-07-02T11:05:06;23.60;52.58
67093;SHT31;54011;50.772;7.730;2023-07-02T11:07:33;23.91;53.28
67093;SHT31;54011;50.772;7.730;2023-07-02T11:09:59;24.33;52.98
67093;SHT31;54011;50.772;7.730;2023-07-02T11:12:29;24.33;52.65
67093;SHT31;54011;50.772;7.730;2023-07-02T11:14:59;24.22;51.70
67093;SHT31;54011;50.772;7.730;2023-07-02T11:17:34;24.98;50.27
67093;SHT31;54011;50.772;7.730;2023-07-02T11:20:01;25.86;48.88
67093;SHT31;54011;50.772;7.730;2023-07-02T11:22:33;25.90;48.55
67093;SHT31;54011;50.772;7.730;2023-07-02T11:25:16;26.01;48.97
67093;SHT31;54011;50.772;7.730;2023-07-02T11:27:43;25.78;49.57
67093;SHT31;54011;50.772;7.730;2023-07-02T11:30:12;24.91;50.45
67093;SHT31;54011;50.772;7.730;2023-07-02T11:35:14;24.32;51.65
67093;SHT31;54011;50.772;7.730;2023-07-02T11:37:42;23.84;52.29
67093;SHT31;54011;50.772;7.730;2023-07-02T11:40:08;24.05;52.84
67093;SHT31;54011;50.772;7.730;2023-07-02T11:42:35;23.70;52.98
67093;SHT31;54011;50.772;7.730;2023-07-02T11:45:01;23.72;53.23
67093;SHT31;54011;50.772;7.730;2023-07-02T11:47:27;24.11;52.55
67093;SHT31;54011;50.772;7.730;2023-07-02T11:49:53;23.77;52.90
67093;SHT31;54011;50.772;7.730;2023-07-02T11:52:25;24.11;53.39
67093;SHT31;54011;50.772;7.730;2023-07-02T11:54:51;23.98;52.50
67093;SHT31;54011;50.772;7.730;2023-07-02T11:57:19;23.91;51.91
67093;SHT31;54011;50.772;7.730;2023-07-02T11:59:45;24.44;52.04
67093;SHT31;54011;50.772;7.730;2023-07-02T12:02:10;24.18;52.95
67093;SHT31;54011;50.772;7.730;2023-07-02T12:04:38;24.08;51.77
67093;SHT31;54011;50.772;7.730;2023-07-02T12:07:04;24.69;49.62
67093;SHT31;54011;50.772;7.730;2023-07-02T12:09:31;24.92;49.60
67093;SHT31;54011;50.772;7.730;2023-07-02T12:11:58;27.12;47.23
67093;SHT31;54011;50.772;7.730;2023-07-02T12:14:25;28.05;44.88
67093;SHT31;54011;50.772;7.730;2023-07-02T12:16:53;29.13;43.22
67093;SHT31;54011;50.772;7.730;2023-07-02T12:19:19;26.88;45.52
67093;SHT31;54011;50.772;7.730;2023-07-02T12:21:45;27.09;45.76
67093;SHT31;54011;50.772;7.730;2023-07-02T12:24:11;26.41;45.66
67093;SHT31;54011;50.772;7.730;2023-07-02T12:26:42;26.38;44.75
67093;SHT31;54011;50.772;7.730;2023-07-02T12:29:08;25.62;46.07
67093;SHT31;54011;50.772;7.730;2023-07-02T12:31:36;25.70;46.74
67093;SHT31;54011;50.772;7.730;2023-07-02T12:34:02;25.46;47.41
67093;SHT31;54011;50.772;7.730;2023-07-02T12:36:29;25.73;47.24
67093;SHT31;54011;50.772;7.730;2023-07-02T12:38:56;25.62;46.55
67093;SHT31;54011;50.772;7.730;2023-07-02T12:41:23;25.04;47.03
67093;SHT31;54011;50.772;7.730;2023-07-02T12:43:51;25.11;47.76
67093;SHT31;54011;50.772;7.730;2023-07-02T12:46:17;25.85;46.95
67093;SHT31;54011;50.772;7.730;2023-07-02T12:48:43;26.01;45.48
67093;SHT31;54011;50.772;7.730;2023-07-02T12:51:10;26.98;45.37
67093;SHT31;54011;50.772;7.730;2023-07-02T12:53:37;27.18;45.98
67093;SHT31;54011;50.772;7.730;2023-07-02T12:56:04;28.90;43.73
67093;SHT31;54011;50.772;7.730;2023-07-02T12:58:31;29.47;42.34
67093;SHT31;54011;50.772;7.730;2023-07-02T13:00:58;26.77;45.82
67093;SHT31;54011;50.772;7.730;2023-07-02T13:03:23;27.12;46.03
67093;SHT31;54011;50.772;7.730;2023-07-02T13:05:51;26.77;47.11
67093;SHT31;54011;50.772;7.730;2023-07-02T13:08:18;26.82;47.05
67093;SHT31;54011;50.772;7.730;2023-07-02T13:10:43;27.71;44.68
67093;SHT31;54011;50.772;7.730;2023-07-02T13:13:09;28.14;44.07
67093;SHT31;54011;50.772;7.730;2023-07-02T13:15:36;27.90;44.82
67093;SHT31;54011;50.772;7.730;2023-07-02T13:18:01;26.84;46.46
67093;SHT31;54011;50.772;7.730;2023-07-02T13:20:27;27.29;45.07
67093;SHT31;54011;50.772;7.730;2023-07-02T13:22:54;27.23;44.26
67093;SHT31;54011;50.772;7.730;2023-07-02T13:25:19;28.62;43.85
67093;SHT31;54011;50.772;7.730;2023-07-02T13:27:45;27.88;43.74
67093;SHT31;54011;50.772;7.730;2023-07-02T13:30:14;27.81;44.33
67093;SHT31;54011;50.772;7.730;2023-07-02T13:32:40;26.94;44.49
67093;SHT31;54011;50.772;7.730;2023-07-02T13:35:08;27.54;44.33
67093;SHT31;54011;50.772;7.730;2023-07-02T13:37:33;27.09;43.90
67093;SHT31;54011;50.772;7.730;2023-07-02T13:40:00;28.68;42.53
67093;SHT31;54011;50.772;7.730;2023-07-02T13:42:25;29.23;41.05
67093;SHT31;54011;50.772;7.730;2023-07-02T13:44:52;27.39;42.60
67093;SHT31;54011;50.772;7.730;2023-07-02T13:47:18;28.24;41.01
67093;SHT31;54011;50.772;7.730;2023-07-02T13:49:44;28.62;42.34
67093;SHT31;54011;50.772;7.730;2023-07-02T13:52:12;29.61;40.35
67093;SHT31;54011;50.772;7.730;2023-07-02T13:54:38;30.80;39.45
67093;SHT31;54011;50.772;7.730;2023-07-02T13:57:04;30.54;39.35
67093;SHT31;54011;50.772;7.730;2023-07-02T13:59:31;28.46;40.63
67093;SHT31;54011;50.772;7.730;2023-07-02T14:01:58;29.62;39.69
67093;SHT31;54011;50.772;7.730;2023-07-02T14:04:27;28.59;40.63
67093;SHT31;54011;50.772;7.730;2023-07-02T14:06:53;29.14;39.92
67093;SHT31;54011;50.772;7.730;2023-07-02T14:09:20;29.14;39.57
67093;SHT31;54011;50.772;7.730;2023-07-02T14:11:45;30.88;38.75
67093;SHT31;54011;50.772;7.730;2023-07-02T14:14:11;31.89;38.54
67093;SHT31;54011;50.772;7.730;2023-07-02T14:16:38;31.43;37.89
67093;SHT31;54011;50.772;7.730;2023-07-02T14:19:04;29.92;38.74
67093;SHT31;54011;50.772;7.730;2023-07-02T14:21:29;29.71;37.82
67093;SHT31;54011;50.772;7.730;2023-07-02T14:23:55;29.03;38.77
67093;SHT31;54011;50.772;7.730;2023-07-02T14:26:21;27.16;40.63
67093;SHT31;54011;50.772;7.730;2023-07-02T14:28:47;28.05;39.04
67093;SHT31;54011;50.772;7.730;2023-07-02T14:31:14;28.44;40.43
67093;SHT31;54011;50.772;7.730;2023-07-02T14:33:39;28.25;38.94
67093;SHT31;54011;50.772;7.730;2023-07-02T14:36:06;29.74;39.36
67093;SHT31;54011;50.772;7.730;2023-07-02T14:38:32;29.45;38.86
67093;SHT31;54011;50.772;7.730;2023-07-02T14:40:59;29.13;39.47
67093;SHT31;54011;50.772;7.730;2023-07-02T14:43:28;29.85;38.72
67093;SHT31;54011;50.772;7.730;2023-07-02T14:45:56;29.58;39.74
67093;SHT31;54011;50.772;7.730;2023-07-02T14:48:22;30.36;37.78
67093;SHT31;54011;50.772;7.730;2023-07-02T14:50:52;31.61;36.42
67093;SHT31;54011;50.772;7.730;2023-07-02T14:53:19;32.44;35.56
67093;SHT31;54011;50.772;7.730;2023-07-02T14:55:46;31.46;36.01
67093;SHT31;54011;50.772;7.730;2023-07-02T14:58:15;32.50;36.09
67093;SHT31;54011;50.772;7.730;2023-07-02T15:00:53;31.66;35.69
67093;SHT31;54011;50.772;7.730;2023-07-02T15:03:20;31.01;37.39
67093;SHT31;54011;50.772;7.730;2023-07-02T15:05:48;30.81;37.96
67093;SHT31;54011;50.772;7.730;2023-07-02T15:08:15;31.72;36.97
67093;SHT31;54011;50.772;7.730;2023-07-02T15:10:51;31.67;36.49
67093;SHT31;54011;50.772;7.730;2023-07-02T15:13:18;30.56;37.58
67093;SHT31;54011;50.772;7.730;2023-07-02T15:15:45;30.44;37.06
67093;SHT31;54011;50.772;7.730;2023-07-02T15:18:14;30.06;38.84
67093;SHT31;54011;50.772;7.730;2023-07-02T15:20:43;31.19;35.76
67093;SHT31;54011;50.772;7.730;2023-07-02T15:23:09;29.47;39.84
67093;SHT31;54011;50.772;7.730;2023-07-02T15:25:36;28.69;39.94
67093;SHT31;54011;50.772;7.730;2023-07-02T15:28:01;28.04;41.69
67093;SHT31;54011;50.772;7.730;2023-07-02T15:30:28;30.30;38.30
67093;SHT31;54011;50.772;7.730;2023-07-02T15:32:55;29.81;39.55
67093;SHT31;54011;50.772;7.730;2023-07-02T15:35:22;28.92;39.02